This is the latest recevied weather packets stored in our database for station/object N9OJR. If no packets are shown the sender has not sent any weather packets the latest 10 day(s).
| Time | Temp. | Humidity | Pressure | Rain* | Wind** | Luminosity | Snow |
|---|---|---|---|---|---|---|---|
| 1777764072 | 5.56° C | 70% | 1013.2 hPa | 0 mm | - | 21 W/m² | - |
| 1777763768 | 5.56° C | 70% | 1013.3 hPa | 0 mm | - | 30 W/m² | - |
| 1777763466 | 5.56° C | 70% | 1013.4 hPa | 0 mm | - | 42 W/m² | - |
| 1777763164 | 5.56° C | 70% | 1013.4 hPa | 0 mm | - | 48 W/m² | - |
| 1777762863 | 5.56° C | 68% | 1013.1 hPa | 0 mm | - | 39 W/m² | - |
| 1777762557 | 5.56° C | 67% | 1013 hPa | 0 mm | - | 26 W/m² | - |
| 1777762255 | 5.56° C | 69% | 1013.3 hPa | 0 mm | - | 26 W/m² | - |
| 1777761951 | 5.56° C | 67% | 1013.2 hPa | 0 mm | - | 29 W/m² | - |
| 1777761648 | 5.56° C | 67% | 1013.2 hPa | 0 mm | - | 32 W/m² | - |
| 1777761346 | 5.56° C | 67% | 1013.1 hPa | 0 mm | - | 36 W/m² | - |
| 1777761044 | 5.56° C | 67% | 1013.1 hPa | 0 mm | - | 47 W/m² | - |
| 1777760741 | 5.56° C | 66% | 1013.2 hPa | 0 mm | - | 48 W/m² | - |
| 1777760437 | 6.11° C | 67% | 1013.2 hPa | 0 mm | - | 58 W/m² | - |
| 1777760133 | 6.11° C | 67% | 1013.3 hPa | 0 mm | - | 68 W/m² | - |
| 1777759831 | 6.11° C | 64% | 1012.9 hPa | 0 mm | - | 68 W/m² | - |
| 1777759526 | 6.11° C | 65% | 1013.1 hPa | 0 mm | - | 78 W/m² | - |
| 1777759223 | 6.11° C | 65% | 1013.2 hPa | 0 mm | - | 74 W/m² | - |
| 1777758920 | 6.11° C | 63% | 1013 hPa | 0 mm | - | 66 W/m² | - |
| 1777758617 | 6.11° C | 64% | 1013.2 hPa | 0 mm | - | 71 W/m² | - |
| 1777758315 | 6.67° C | 62% | 1013 hPa | 0 mm | - | 69 W/m² | - |
| 1777758012 | 6.67° C | 63% | 1012.9 hPa | 0 mm | - | 75 W/m² | - |
| 1777757708 | 6.67° C | 62% | 1013.1 hPa | 0 mm | - | 80 W/m² | - |
| 1777757407 | 6.67° C | 64% | 1012.8 hPa | 0 mm | - | 133 W/m² | - |
| 1777757105 | 6.67° C | 65% | 1013 hPa | 0 mm | - | 152 W/m² | - |
| 1777756802 | 6.67° C | 66% | 1012.7 hPa | 0 mm | - | 147 W/m² | - |
* Rain latest hour (hover to see other rain measurements)
** Current wind speed in m/s (hover to see current wind gust speed)